Pagrindinis puslapis
METAR-TAF:

METAR-TAF

Oro uostai :

Payerne, Šveicarija

platuma: 46-49N, ilguma: 006-57E, Aukštis: 490 m

Dabartinis oras

Ataskaita buvo paskelbta 33 minutes, ne 22:50 UTC
Vėjas 4 kt iš Pietų/Pietvakarių
Temperatūra 8°C
Drėgmė 76%
Slėgis 1026 hPa
Matomumas 10 km arba daugiau

METAR: LSMP 072250Z AUTO 20004KT 9999NDV NCD 08/04 Q1026 RMK

Laikas: 01:23 (23:23 UTC)


TAF: trūkstamas

Orai ataskaitas ir orų prognozės (METAR, TAF).

turimą stotys yra geltonos ir raudonos taškus žemėlapyje.

Perkelti pele per norėdami pamatyti stoties vardą.

Tada spustelėkite, norėdami matyti oro stebėjimo ir prognozės.

Norėdami pakeisti žemėlapį: spustelėkite ant žalios mygtukų su juodo kryžiaus žemyn,; žalią mygtuką su brūkšneliu, jei norite nutolinti; arba žalių rodyklių gretimoms žemėlapius.


METAR-TAF: